sensor_id;sensor_type;location;lat;lon;timestamp;P1;P4;P2;P0;N10;N4;N25;N1;N05;TS
62702;SPS30;66022;50.448;18.122;2023-08-31T00:02:42;6.77;;6.66;;;;;;;
62702;SPS30;66022;50.448;18.122;2023-08-31T00:07:08;6.77;;6.66;;;;;;;
62702;SPS30;66022;50.448;18.122;2023-08-31T00:11:35;6.90;;6.59;;;;;;;
62702;SPS30;66022;50.448;18.122;2023-08-31T00:16:00;6.90;;6.59;;;;;;;
62702;SPS30;66022;50.448;18.122;2023-08-31T00:20:26;7.23;;6.62;;;;;;;
62702;SPS30;66022;50.448;18.122;2023-08-31T00:24:53;7.23;;6.62;;;;;;;
62702;SPS30;66022;50.448;18.122;2023-08-31T00:29:23;7.23;;6.62;;;;;;;
62702;SPS30;66022;50.448;18.122;2023-08-31T00:33:44;7.42;;6.60;;;;;;;
62702;SPS30;66022;50.448;18.122;2023-08-31T00:38:12;7.42;;6.60;;;;;;;
62702;SPS30;66022;50.448;18.122;2023-08-31T00:42:36;6.36;;6.36;;;;;;;
62702;SPS30;66022;50.448;18.122;2023-08-31T00:47:02;6.36;;6.36;;;;;;;
62702;SPS30;66022;50.448;18.122;2023-08-31T00:51:28;5.84;;5.84;;;;;;;
62702;SPS30;66022;50.448;18.122;2023-08-31T00:55:54;5.84;;5.84;;;;;;;
62702;SPS30;66022;50.448;18.122;2023-08-31T01:00:22;6.68;;6.42;;;;;;;
62702;SPS30;66022;50.448;18.122;2023-08-31T01:09:19;6.68;;6.42;;;;;;;
62702;SPS30;66022;50.448;18.122;2023-08-31T01:13:38;7.42;;7.09;;;;;;;
62702;SPS30;66022;50.448;18.122;2023-08-31T01:18:04;7.42;;7.09;;;;;;;
62702;SPS30;66022;50.448;18.122;2023-08-31T01:22:32;6.23;;6.02;;;;;;;
62702;SPS30;66022;50.448;18.122;2023-08-31T01:26:56;6.23;;6.02;;;;;;;
62702;SPS30;66022;50.448;18.122;2023-08-31T01:31:22;6.14;;6.14;;;;;;;
62702;SPS30;66022;50.448;18.122;2023-08-31T01:35:49;6.14;;6.14;;;;;;;
62702;SPS30;66022;50.448;18.122;2023-08-31T01:40:15;7.06;;6.72;;;;;;;
62702;SPS30;66022;50.448;18.122;2023-08-31T01:44:40;7.06;;6.72;;;;;;;
62702;SPS30;66022;50.448;18.122;2023-08-31T01:49:06;7.06;;6.72;;;;;;;
62702;SPS30;66022;50.448;18.122;2023-08-31T01:53:32;6.67;;6.67;;;;;;;
62702;SPS30;66022;50.448;18.122;2023-08-31T01:57:58;6.67;;6.67;;;;;;;
62702;SPS30;66022;50.448;18.122;2023-08-31T02:02:24;9.42;;8.60;;;;;;;
62702;SPS30;66022;50.448;18.122;2023-08-31T02:06:50;9.42;;8.60;;;;;;;
62702;SPS30;66022;50.448;18.122;2023-08-31T02:11:17;7.91;;7.19;;;;;;;
62702;SPS30;66022;50.448;18.122;2023-08-31T02:15:42;7.91;;7.19;;;;;;;
62702;SPS30;66022;50.448;18.122;2023-08-31T02:20:09;8.22;;7.69;;;;;;;
62702;SPS30;66022;50.448;18.122;2023-08-31T02:24:34;8.22;;7.69;;;;;;;
62702;SPS30;66022;50.448;18.122;2023-08-31T02:29:00;8.22;;7.69;;;;;;;
62702;SPS30;66022;50.448;18.122;2023-08-31T02:33:26;8.31;;8.14;;;;;;;
62702;SPS30;66022;50.448;18.122;2023-08-31T02:37:53;8.31;;8.14;;;;;;;
62702;SPS30;66022;50.448;18.122;2023-08-31T02:42:18;8.70;;8.54;;;;;;;
62702;SPS30;66022;50.448;18.122;2023-08-31T02:46:44;8.70;;8.54;;;;;;;
62702;SPS30;66022;50.448;18.122;2023-08-31T02:51:11;11.39;;9.94;;;;;;;
62702;SPS30;66022;50.448;18.122;2023-08-31T02:55:36;11.39;;9.94;;;;;;;
62702;SPS30;66022;50.448;18.122;2023-08-31T03:00:03;9.31;;8.87;;;;;;;
62702;SPS30;66022;50.448;18.122;2023-08-31T03:04:28;9.31;;8.87;;;;;;;
62702;SPS30;66022;50.448;18.122;2023-08-31T03:08:54;9.31;;8.87;;;;;;;
62702;SPS30;66022;50.448;18.122;2023-08-31T03:13:20;9.06;;8.68;;;;;;;
62702;SPS30;66022;50.448;18.122;2023-08-31T03:17:47;9.06;;8.68;;;;;;;
62702;SPS30;66022;50.448;18.122;2023-08-31T03:22:12;8.13;;7.86;;;;;;;
62702;SPS30;66022;50.448;18.122;2023-08-31T03:26:39;8.13;;7.86;;;;;;;
62702;SPS30;66022;50.448;18.122;2023-08-31T03:31:04;9.37;;8.27;;;;;;;
62702;SPS30;66022;50.448;18.122;2023-08-31T03:35:33;9.37;;8.27;;;;;;;
62702;SPS30;66022;50.448;18.122;2023-08-31T03:39:56;8.57;;8.19;;;;;;;
62702;SPS30;66022;50.448;18.122;2023-08-31T03:44:22;8.57;;8.19;;;;;;;
62702;SPS30;66022;50.448;18.122;2023-08-31T03:48:48;8.57;;8.19;;;;;;;
62702;SPS30;66022;50.448;18.122;2023-08-31T03:53:15;9.24;;8.82;;;;;;;
62702;SPS30;66022;50.448;18.122;2023-08-31T03:57:40;9.24;;8.82;;;;;;;
62702;SPS30;66022;50.448;18.122;2023-08-31T04:02:06;9.30;;8.41;;;;;;;
62702;SPS30;66022;50.448;18.122;2023-08-31T04:06:33;9.30;;8.41;;;;;;;
62702;SPS30;66022;50.448;18.122;2023-08-31T04:10:58;8.57;;8.39;;;;;;;
62702;SPS30;66022;50.448;18.122;2023-08-31T04:15:25;8.57;;8.39;;;;;;;
62702;SPS30;66022;50.448;18.122;2023-08-31T04:19:50;10.81;;9.94;;;;;;;
62702;SPS30;66022;50.448;18.122;2023-08-31T04:24:17;10.81;;9.94;;;;;;;
62702;SPS30;66022;50.448;18.122;2023-08-31T04:28:43;10.81;;9.94;;;;;;;
62702;SPS30;66022;50.448;18.122;2023-08-31T04:33:09;8.31;;8.31;;;;;;;
62702;SPS30;66022;50.448;18.122;2023-08-31T04:37:35;8.31;;8.31;;;;;;;
62702;SPS30;66022;50.448;18.122;2023-08-31T04:42:01;9.03;;9.03;;;;;;;
62702;SPS30;66022;50.448;18.122;2023-08-31T04:46:27;9.03;;9.03;;;;;;;
62702;SPS30;66022;50.448;18.122;2023-08-31T04:50:55;9.91;;9.43;;;;;;;
62702;SPS30;66022;50.448;18.122;2023-08-31T04:55:20;9.91;;9.43;;;;;;;
62702;SPS30;66022;50.448;18.122;2023-08-31T04:59:45;10.79;;10.79;;;;;;;
62702;SPS30;66022;50.448;18.122;2023-08-31T05:04:10;10.79;;10.79;;;;;;;
62702;SPS30;66022;50.448;18.122;2023-08-31T05:08:37;10.79;;10.79;;;;;;;
62702;SPS30;66022;50.448;18.122;2023-08-31T05:13:03;11.16;;11.01;;;;;;;
62702;SPS30;66022;50.448;18.122;2023-08-31T05:17:29;11.16;;11.01;;;;;;;
62702;SPS30;66022;50.448;18.122;2023-08-31T05:21:55;10.06;;9.68;;;;;;;
62702;SPS30;66022;50.448;18.122;2023-08-31T05:26:21;10.06;;9.68;;;;;;;
62702;SPS30;66022;50.448;18.122;2023-08-31T05:30:50;11.63;;9.88;;;;;;;
62702;SPS30;66022;50.448;18.122;2023-08-31T05:35:18;11.63;;9.88;;;;;;;
62702;SPS30;66022;50.448;18.122;2023-08-31T05:39:41;7.83;;7.83;;;;;;;
62702;SPS30;66022;50.448;18.122;2023-08-31T05:44:05;7.83;;7.83;;;;;;;
62702;SPS30;66022;50.448;18.122;2023-08-31T05:48:31;7.83;;7.83;;;;;;;
62702;SPS30;66022;50.448;18.122;2023-08-31T05:52:57;12.40;;12.34;;;;;;;
62702;SPS30;66022;50.448;18.122;2023-08-31T05:57:23;12.40;;12.34;;;;;;;
62702;SPS30;66022;50.448;18.122;2023-08-31T06:01:49;15.24;;15.21;;;;;;;
62702;SPS30;66022;50.448;18.122;2023-08-31T06:06:15;15.24;;15.21;;;;;;;
62702;SPS30;66022;50.448;18.122;2023-08-31T06:10:41;11.48;;10.31;;;;;;;
62702;SPS30;66022;50.448;18.122;2023-08-31T06:15:07;11.48;;10.31;;;;;;;
62702;SPS30;66022;50.448;18.122;2023-08-31T06:19:33;9.60;;9.24;;;;;;;
62702;SPS30;66022;50.448;18.122;2023-08-31T06:23:59;9.60;;9.24;;;;;;;
62702;SPS30;66022;50.448;18.122;2023-08-31T06:28:25;9.60;;9.24;;;;;;;
62702;SPS30;66022;50.448;18.122;2023-08-31T06:32:51;10.68;;10.40;;;;;;;
62702;SPS30;66022;50.448;18.122;2023-08-31T06:37:17;10.68;;10.40;;;;;;;
62702;SPS30;66022;50.448;18.122;2023-08-31T06:41:43;7.67;;7.67;;;;;;;
62702;SPS30;66022;50.448;18.122;2023-08-31T06:46:09;7.67;;7.67;;;;;;;
62702;SPS30;66022;50.448;18.122;2023-08-31T06:50:35;4.46;;4.24;;;;;;;
62702;SPS30;66022;50.448;18.122;2023-08-31T06:55:01;4.46;;4.24;;;;;;;
62702;SPS30;66022;50.448;18.122;2023-08-31T06:59:28;3.21;;3.08;;;;;;;
62702;SPS30;66022;50.448;18.122;2023-08-31T07:03:53;3.21;;3.08;;;;;;;
62702;SPS30;66022;50.448;18.122;2023-08-31T07:08:19;3.21;;3.08;;;;;;;
62702;SPS30;66022;50.448;18.122;2023-08-31T07:12:45;2.22;;2.22;;;;;;;
62702;SPS30;66022;50.448;18.122;2023-08-31T07:17:17;2.22;;2.22;;;;;;;
62702;SPS30;66022;50.448;18.122;2023-08-31T07:21:37;2.38;;2.38;;;;;;;
62702;SPS30;66022;50.448;18.122;2023-08-31T07:26:03;2.38;;2.38;;;;;;;
62702;SPS30;66022;50.448;18.122;2023-08-31T07:30:29;5.54;;4.19;;;;;;;
62702;SPS30;66022;50.448;18.122;2023-08-31T07:34:55;5.54;;4.19;;;;;;;
62702;SPS30;66022;50.448;18.122;2023-08-31T07:39:21;2.41;;2.41;;;;;;;
62702;SPS30;66022;50.448;18.122;2023-08-31T07:43:47;2.41;;2.41;;;;;;;
62702;SPS30;66022;50.448;18.122;2023-08-31T07:48:13;2.41;;2.41;;;;;;;
62702;SPS30;66022;50.448;18.122;2023-08-31T07:52:39;3.69;;3.25;;;;;;;
62702;SPS30;66022;50.448;18.122;2023-08-31T07:57:05;3.69;;3.25;;;;;;;
62702;SPS30;66022;50.448;18.122;2023-08-31T08:01:31;3.13;;3.13;;;;;;;
62702;SPS30;66022;50.448;18.122;2023-08-31T08:05:57;3.13;;3.13;;;;;;;
62702;SPS30;66022;50.448;18.122;2023-08-31T08:10:23;4.14;;4.14;;;;;;;
62702;SPS30;66022;50.448;18.122;2023-08-31T08:14:49;4.14;;4.14;;;;;;;
62702;SPS30;66022;50.448;18.122;2023-08-31T08:19:20;4.14;;4.14;;;;;;;
62702;SPS30;66022;50.448;18.122;2023-08-31T08:23:41;4.43;;4.43;;;;;;;
62702;SPS30;66022;50.448;18.122;2023-08-31T08:28:07;4.43;;4.43;;;;;;;
62702;SPS30;66022;50.448;18.122;2023-08-31T08:32:33;6.19;;5.33;;;;;;;
62702;SPS30;66022;50.448;18.122;2023-08-31T08:36:59;6.19;;5.33;;;;;;;
62702;SPS30;66022;50.448;18.122;2023-08-31T08:41:25;3.85;;3.85;;;;;;;
62702;SPS30;66022;50.448;18.122;2023-08-31T08:45:51;3.85;;3.85;;;;;;;
62702;SPS30;66022;50.448;18.122;2023-08-31T08:50:17;3.72;;3.72;;;;;;;
62702;SPS30;66022;50.448;18.122;2023-08-31T08:54:43;3.72;;3.72;;;;;;;
62702;SPS30;66022;50.448;18.122;2023-08-31T08:59:09;3.72;;3.72;;;;;;;
62702;SPS30;66022;50.448;18.122;2023-08-31T09:03:35;4.26;;4.26;;;;;;;
62702;SPS30;66022;50.448;18.122;2023-08-31T09:08:08;4.26;;4.26;;;;;;;
62702;SPS30;66022;50.448;18.122;2023-08-31T09:12:27;4.03;;4.03;;;;;;;
62702;SPS30;66022;50.448;18.122;2023-08-31T09:16:53;4.03;;4.03;;;;;;;
62702;SPS30;66022;50.448;18.122;2023-08-31T09:21:20;4.09;;4.09;;;;;;;
62702;SPS30;66022;50.448;18.122;2023-08-31T09:25:49;4.09;;4.09;;;;;;;
62702;SPS30;66022;50.448;18.122;2023-08-31T09:30:11;6.28;;5.42;;;;;;;
62702;SPS30;66022;50.448;18.122;2023-08-31T09:34:37;6.28;;5.42;;;;;;;
62702;SPS30;66022;50.448;18.122;2023-08-31T09:39:05;6.28;;5.42;;;;;;;
62702;SPS30;66022;50.448;18.122;2023-08-31T09:43:30;4.65;;4.65;;;;;;;
62702;SPS30;66022;50.448;18.122;2023-08-31T09:47:55;4.65;;4.65;;;;;;;
62702;SPS30;66022;50.448;18.122;2023-08-31T09:52:22;4.59;;4.59;;;;;;;
62702;SPS30;66022;50.448;18.122;2023-08-31T09:56:48;4.59;;4.59;;;;;;;
62702;SPS30;66022;50.448;18.122;2023-08-31T10:01:13;4.80;;4.80;;;;;;;
62702;SPS30;66022;50.448;18.122;2023-08-31T10:05:40;4.80;;4.80;;;;;;;
62702;SPS30;66022;50.448;18.122;2023-08-31T10:10:06;4.24;;4.24;;;;;;;
62702;SPS30;66022;50.448;18.122;2023-08-31T10:14:31;4.24;;4.24;;;;;;;
62702;SPS30;66022;50.448;18.122;2023-08-31T10:18:58;4.24;;4.24;;;;;;;
62702;SPS30;66022;50.448;18.122;2023-08-31T10:23:23;4.44;;4.44;;;;;;;
62702;SPS30;66022;50.448;18.122;2023-08-31T10:27:49;4.44;;4.44;;;;;;;
62702;SPS30;66022;50.448;18.122;2023-08-31T10:32:18;4.59;;4.59;;;;;;;
62702;SPS30;66022;50.448;18.122;2023-08-31T10:36:43;4.59;;4.59;;;;;;;
62702;SPS30;66022;50.448;18.122;2023-08-31T10:45:43;6.44;;5.77;;;;;;;
62702;SPS30;66022;50.448;18.122;2023-08-31T10:50:03;6.09;;5.69;;;;;;;
62702;SPS30;66022;50.448;18.122;2023-08-31T10:54:26;6.09;;5.69;;;;;;;
62702;SPS30;66022;50.448;18.122;2023-08-31T10:58:57;6.09;;5.69;;;;;;;
62702;SPS30;66022;50.448;18.122;2023-08-31T11:03:18;4.84;;4.84;;;;;;;
62702;SPS30;66022;50.448;18.122;2023-08-31T11:07:44;4.84;;4.84;;;;;;;
62702;SPS30;66022;50.448;18.122;2023-08-31T11:12:09;4.83;;4.83;;;;;;;
62702;SPS30;66022;50.448;18.122;2023-08-31T11:16:37;4.83;;4.83;;;;;;;
62702;SPS30;66022;50.448;18.122;2023-08-31T11:21:02;3.58;;3.58;;;;;;;
62702;SPS30;66022;50.448;18.122;2023-08-31T11:25:27;3.58;;3.58;;;;;;;
62702;SPS30;66022;50.448;18.122;2023-08-31T11:29:53;2.03;;2.03;;;;;;;
62702;SPS30;66022;50.448;18.122;2023-08-31T11:34:19;2.03;;2.03;;;;;;;
62702;SPS30;66022;50.448;18.122;2023-08-31T11:38:47;2.03;;2.03;;;;;;;
62702;SPS30;66022;50.448;18.122;2023-08-31T11:43:14;2.85;;2.51;;;;;;;
62702;SPS30;66022;50.448;18.122;2023-08-31T11:47:37;2.85;;2.51;;;;;;;
62702;SPS30;66022;50.448;18.122;2023-08-31T11:52:03;2.40;;2.40;;;;;;;
62702;SPS30;66022;50.448;18.122;2023-08-31T12:00:58;1.97;;1.97;;;;;;;
62702;SPS30;66022;50.448;18.122;2023-08-31T12:05:21;1.97;;1.97;;;;;;;
62702;SPS30;66022;50.448;18.122;2023-08-31T12:09:47;1.62;;1.62;;;;;;;
62702;SPS30;66022;50.448;18.122;2023-08-31T12:18:39;1.62;;1.62;;;;;;;
62702;SPS30;66022;50.448;18.122;2023-08-31T12:23:05;2.31;;2.31;;;;;;;
62702;SPS30;66022;50.448;18.122;2023-08-31T12:27:31;2.31;;2.31;;;;;;;
62702;SPS30;66022;50.448;18.122;2023-08-31T12:31:57;2.36;;2.36;;;;;;;
62702;SPS30;66022;50.448;18.122;2023-08-31T12:36:23;2.36;;2.36;;;;;;;
62702;SPS30;66022;50.448;18.122;2023-08-31T12:40:49;3.10;;2.63;;;;;;;
62702;SPS30;66022;50.448;18.122;2023-08-31T12:45:15;3.10;;2.63;;;;;;;
62702;SPS30;66022;50.448;18.122;2023-08-31T12:49:41;2.27;;2.27;;;;;;;
62702;SPS30;66022;50.448;18.122;2023-08-31T12:54:07;2.27;;2.27;;;;;;;
62702;SPS30;66022;50.448;18.122;2023-08-31T12:58:33;2.27;;2.27;;;;;;;
62702;SPS30;66022;50.448;18.122;2023-08-31T13:02:59;3.39;;3.07;;;;;;;
62702;SPS30;66022;50.448;18.122;2023-08-31T13:07:25;3.39;;3.07;;;;;;;
62702;SPS30;66022;50.448;18.122;2023-08-31T13:11:51;2.20;;2.20;;;;;;;
62702;SPS30;66022;50.448;18.122;2023-08-31T13:16:17;2.20;;2.20;;;;;;;
62702;SPS30;66022;50.448;18.122;2023-08-31T13:25:09;2.37;;2.23;;;;;;;
62702;SPS30;66022;50.448;18.122;2023-08-31T13:29:35;2.30;;2.11;;;;;;;
62702;SPS30;66022;50.448;18.122;2023-08-31T13:34:04;2.30;;2.11;;;;;;;
62702;SPS30;66022;50.448;18.122;2023-08-31T13:38:28;2.30;;2.11;;;;;;;
62702;SPS30;66022;50.448;18.122;2023-08-31T13:42:54;3.36;;3.10;;;;;;;
62702;SPS30;66022;50.448;18.122;2023-08-31T13:47:19;3.36;;3.10;;;;;;;
62702;SPS30;66022;50.448;18.122;2023-08-31T13:51:45;2.55;;2.32;;;;;;;
62702;SPS30;66022;50.448;18.122;2023-08-31T13:56:11;2.55;;2.32;;;;;;;
62702;SPS30;66022;50.448;18.122;2023-08-31T14:00:37;3.56;;2.91;;;;;;;
62702;SPS30;66022;50.448;18.122;2023-08-31T14:05:06;3.56;;2.91;;;;;;;
62702;SPS30;66022;50.448;18.122;2023-08-31T14:09:30;2.05;;2.05;;;;;;;
62702;SPS30;66022;50.448;18.122;2023-08-31T14:14:05;2.05;;2.05;;;;;;;
62702;SPS30;66022;50.448;18.122;2023-08-31T14:18:21;2.05;;2.05;;;;;;;
62702;SPS30;66022;50.448;18.122;2023-08-31T14:22:48;2.31;;2.31;;;;;;;
62702;SPS30;66022;50.448;18.122;2023-08-31T14:27:13;2.31;;2.31;;;;;;;
62702;SPS30;66022;50.448;18.122;2023-08-31T14:31:39;3.36;;2.87;;;;;;;
62702;SPS30;66022;50.448;18.122;2023-08-31T14:36:05;3.36;;2.87;;;;;;;
62702;SPS30;66022;50.448;18.122;2023-08-31T14:40:31;2.76;;2.55;;;;;;;
62702;SPS30;66022;50.448;18.122;2023-08-31T14:44:58;2.76;;2.55;;;;;;;
62702;SPS30;66022;50.448;18.122;2023-08-31T14:49:24;2.55;;2.55;;;;;;;
62702;SPS30;66022;50.448;18.122;2023-08-31T14:53:49;2.55;;2.55;;;;;;;
62702;SPS30;66022;50.448;18.122;2023-08-31T14:58:15;2.55;;2.55;;;;;;;
62702;SPS30;66022;50.448;18.122;2023-08-31T15:02:41;2.63;;2.63;;;;;;;
62702;SPS30;66022;50.448;18.122;2023-08-31T15:07:07;2.63;;2.63;;;;;;;
62702;SPS30;66022;50.448;18.122;2023-08-31T15:11:33;3.15;;3.15;;;;;;;
62702;SPS30;66022;50.448;18.122;2023-08-31T15:15:59;3.15;;3.15;;;;;;;
62702;SPS30;66022;50.448;18.122;2023-08-31T15:20:26;4.37;;3.87;;;;;;;
62702;SPS30;66022;50.448;18.122;2023-08-31T15:24:51;4.37;;3.87;;;;;;;
62702;SPS30;66022;50.448;18.122;2023-08-31T15:29:20;4.37;;3.87;;;;;;;
62702;SPS30;66022;50.448;18.122;2023-08-31T15:33:43;3.00;;3.00;;;;;;;
62702;SPS30;66022;50.448;18.122;2023-08-31T15:38:10;3.00;;3.00;;;;;;;
62702;SPS30;66022;50.448;18.122;2023-08-31T15:42:36;2.73;;2.73;;;;;;;
62702;SPS30;66022;50.448;18.122;2023-08-31T15:47:02;2.73;;2.73;;;;;;;
62702;SPS30;66022;50.448;18.122;2023-08-31T15:51:28;3.28;;3.05;;;;;;;
62702;SPS30;66022;50.448;18.122;2023-08-31T15:55:54;3.28;;3.05;;;;;;;
62702;SPS30;66022;50.448;18.122;2023-08-31T16:00:20;4.96;;4.14;;;;;;;
62702;SPS30;66022;50.448;18.122;2023-08-31T16:04:46;4.96;;4.14;;;;;;;
62702;SPS30;66022;50.448;18.122;2023-08-31T16:09:12;4.96;;4.14;;;;;;;
62702;SPS30;66022;50.448;18.122;2023-08-31T16:13:38;3.10;;3.10;;;;;;;
62702;SPS30;66022;50.448;18.122;2023-08-31T16:18:04;3.10;;3.10;;;;;;;
62702;SPS30;66022;50.448;18.122;2023-08-31T16:22:29;3.18;;2.93;;;;;;;
62702;SPS30;66022;50.448;18.122;2023-08-31T16:26:56;3.18;;2.93;;;;;;;
62702;SPS30;66022;50.448;18.122;2023-08-31T16:31:22;2.78;;2.74;;;;;;;
62702;SPS30;66022;50.448;18.122;2023-08-31T16:35:48;2.78;;2.74;;;;;;;
62702;SPS30;66022;50.448;18.122;2023-08-31T16:40:14;2.70;;2.70;;;;;;;
62702;SPS30;66022;50.448;18.122;2023-08-31T16:44:40;2.70;;2.70;;;;;;;
62702;SPS30;66022;50.448;18.122;2023-08-31T16:49:06;2.70;;2.70;;;;;;;
62702;SPS30;66022;50.448;18.122;2023-08-31T16:53:32;3.95;;3.42;;;;;;;
62702;SPS30;66022;50.448;18.122;2023-08-31T16:57:58;3.95;;3.42;;;;;;;
62702;SPS30;66022;50.448;18.122;2023-08-31T17:02:25;3.13;;3.13;;;;;;;
62702;SPS30;66022;50.448;18.122;2023-08-31T17:06:50;3.13;;3.13;;;;;;;
62702;SPS30;66022;50.448;18.122;2023-08-31T17:11:16;3.61;;3.61;;;;;;;
62702;SPS30;66022;50.448;18.122;2023-08-31T17:15:42;3.61;;3.61;;;;;;;
62702;SPS30;66022;50.448;18.122;2023-08-31T17:20:08;4.78;;4.43;;;;;;;
62702;SPS30;66022;50.448;18.122;2023-08-31T17:24:34;4.78;;4.43;;;;;;;
62702;SPS30;66022;50.448;18.122;2023-08-31T17:29:00;4.78;;4.43;;;;;;;
62702;SPS30;66022;50.448;18.122;2023-08-31T17:33:26;3.37;;3.17;;;;;;;
62702;SPS30;66022;50.448;18.122;2023-08-31T17:37:52;3.37;;3.17;;;;;;;
62702;SPS30;66022;50.448;18.122;2023-08-31T17:42:18;3.07;;3.07;;;;;;;
62702;SPS30;66022;50.448;18.122;2023-08-31T17:46:44;3.07;;3.07;;;;;;;
62702;SPS30;66022;50.448;18.122;2023-08-31T17:51:10;3.00;;3.00;;;;;;;
62702;SPS30;66022;50.448;18.122;2023-08-31T17:55:36;3.00;;3.00;;;;;;;
62702;SPS30;66022;50.448;18.122;2023-08-31T18:00:02;5.02;;4.81;;;;;;;
62702;SPS30;66022;50.448;18.122;2023-08-31T18:04:28;5.02;;4.81;;;;;;;
62702;SPS30;66022;50.448;18.122;2023-08-31T18:08:54;5.02;;4.81;;;;;;;
62702;SPS30;66022;50.448;18.122;2023-08-31T18:13:20;4.00;;3.82;;;;;;;
62702;SPS30;66022;50.448;18.122;2023-08-31T18:17:49;4.00;;3.82;;;;;;;
62702;SPS30;66022;50.448;18.122;2023-08-31T18:22:12;3.72;;3.72;;;;;;;
62702;SPS30;66022;50.448;18.122;2023-08-31T18:26:37;3.72;;3.72;;;;;;;
62702;SPS30;66022;50.448;18.122;2023-08-31T18:31:04;4.47;;4.47;;;;;;;
62702;SPS30;66022;50.448;18.122;2023-08-31T18:35:30;4.47;;4.47;;;;;;;
62702;SPS30;66022;50.448;18.122;2023-08-31T18:39:56;6.01;;5.44;;;;;;;
62702;SPS30;66022;50.448;18.122;2023-08-31T18:44:22;6.01;;5.44;;;;;;;
62702;SPS30;66022;50.448;18.122;2023-08-31T18:48:48;6.01;;5.44;;;;;;;
62702;SPS30;66022;50.448;18.122;2023-08-31T18:53:14;4.52;;4.52;;;;;;;
62702;SPS30;66022;50.448;18.122;2023-08-31T18:57:40;4.52;;4.52;;;;;;;
62702;SPS30;66022;50.448;18.122;2023-08-31T19:02:06;5.40;;5.27;;;;;;;
62702;SPS30;66022;50.448;18.122;2023-08-31T19:06:32;5.40;;5.27;;;;;;;
62702;SPS30;66022;50.448;18.122;2023-08-31T19:10:58;12.97;;11.59;;;;;;;
62702;SPS30;66022;50.448;18.122;2023-08-31T19:15:24;12.97;;11.59;;;;;;;
62702;SPS30;66022;50.448;18.122;2023-08-31T19:19:50;5.70;;5.21;;;;;;;
62702;SPS30;66022;50.448;18.122;2023-08-31T19:24:16;5.70;;5.21;;;;;;;
62702;SPS30;66022;50.448;18.122;2023-08-31T19:28:42;5.70;;5.21;;;;;;;
62702;SPS30;66022;50.448;18.122;2023-08-31T19:33:08;9.58;;7.90;;;;;;;
62702;SPS30;66022;50.448;18.122;2023-08-31T19:37:35;9.58;;7.90;;;;;;;
62702;SPS30;66022;50.448;18.122;2023-08-31T19:41:59;5.51;;5.51;;;;;;;
62702;SPS30;66022;50.448;18.122;2023-08-31T19:50:51;4.41;;4.41;;;;;;;
62702;SPS30;66022;50.448;18.122;2023-08-31T19:55:18;4.41;;4.41;;;;;;;
62702;SPS30;66022;50.448;18.122;2023-08-31T19:59:44;6.82;;5.68;;;;;;;
62702;SPS30;66022;50.448;18.122;2023-08-31T20:04:10;6.82;;5.68;;;;;;;
62702;SPS30;66022;50.448;18.122;2023-08-31T20:08:36;6.82;;5.68;;;;;;;
62702;SPS30;66022;50.448;18.122;2023-08-31T20:13:02;4.86;;4.86;;;;;;;
62702;SPS30;66022;50.448;18.122;2023-08-31T20:17:28;4.86;;4.86;;;;;;;
62702;SPS30;66022;50.448;18.122;2023-08-31T20:21:55;4.41;;4.41;;;;;;;
62702;SPS30;66022;50.448;18.122;2023-08-31T20:26:20;4.41;;4.41;;;;;;;
62702;SPS30;66022;50.448;18.122;2023-08-31T20:30:46;3.98;;3.98;;;;;;;
62702;SPS30;66022;50.448;18.122;2023-08-31T20:35:12;3.98;;3.98;;;;;;;
62702;SPS30;66022;50.448;18.122;2023-08-31T20:39:38;4.11;;4.11;;;;;;;
62702;SPS30;66022;50.448;18.122;2023-08-31T20:44:04;4.11;;4.11;;;;;;;
62702;SPS30;66022;50.448;18.122;2023-08-31T20:48:31;4.11;;4.11;;;;;;;
62702;SPS30;66022;50.448;18.122;2023-08-31T20:52:56;5.52;;5.22;;;;;;;
62702;SPS30;66022;50.448;18.122;2023-08-31T20:57:25;5.52;;5.22;;;;;;;
62702;SPS30;66022;50.448;18.122;2023-08-31T21:01:48;5.30;;4.86;;;;;;;
62702;SPS30;66022;50.448;18.122;2023-08-31T21:06:14;5.30;;4.86;;;;;;;
62702;SPS30;66022;50.448;18.122;2023-08-31T21:10:40;4.79;;4.79;;;;;;;
62702;SPS30;66022;50.448;18.122;2023-08-31T21:15:06;4.79;;4.79;;;;;;;
62702;SPS30;66022;50.448;18.122;2023-08-31T21:19:32;5.47;;4.88;;;;;;;
62702;SPS30;66022;50.448;18.122;2023-08-31T21:24:00;5.47;;4.88;;;;;;;
62702;SPS30;66022;50.448;18.122;2023-08-31T21:28:24;5.47;;4.88;;;;;;;
62702;SPS30;66022;50.448;18.122;2023-08-31T21:32:50;4.64;;4.36;;;;;;;
62702;SPS30;66022;50.448;18.122;2023-08-31T21:37:16;4.64;;4.36;;;;;;;
62702;SPS30;66022;50.448;18.122;2023-08-31T21:41:42;4.43;;4.43;;;;;;;
62702;SPS30;66022;50.448;18.122;2023-08-31T21:46:08;4.43;;4.43;;;;;;;
62702;SPS30;66022;50.448;18.122;2023-08-31T21:50:34;4.45;;4.45;;;;;;;
62702;SPS30;66022;50.448;18.122;2023-08-31T21:55:00;4.45;;4.45;;;;;;;
62702;SPS30;66022;50.448;18.122;2023-08-31T21:59:26;4.97;;4.82;;;;;;;
62702;SPS30;66022;50.448;18.122;2023-08-31T22:03:52;4.97;;4.82;;;;;;;
62702;SPS30;66022;50.448;18.122;2023-08-31T22:08:18;4.97;;4.82;;;;;;;
62702;SPS30;66022;50.448;18.122;2023-08-31T22:12:44;5.92;;5.57;;;;;;;
62702;SPS30;66022;50.448;18.122;2023-08-31T22:17:10;5.92;;5.57;;;;;;;
62702;SPS30;66022;50.448;18.122;2023-08-31T22:21:36;5.55;;5.26;;;;;;;
62702;SPS30;66022;50.448;18.122;2023-08-31T22:26:02;5.55;;5.26;;;;;;;
62702;SPS30;66022;50.448;18.122;2023-08-31T22:30:28;4.77;;4.77;;;;;;;
62702;SPS30;66022;50.448;18.122;2023-08-31T22:34:54;4.77;;4.77;;;;;;;
62702;SPS30;66022;50.448;18.122;2023-08-31T22:39:20;4.77;;4.77;;;;;;;
62702;SPS30;66022;50.448;18.122;2023-08-31T22:43:46;4.34;;4.34;;;;;;;
62702;SPS30;66022;50.448;18.122;2023-08-31T22:48:12;4.34;;4.34;;;;;;;
62702;SPS30;66022;50.448;18.122;2023-08-31T22:52:38;5.11;;4.88;;;;;;;
62702;SPS30;66022;50.448;18.122;2023-08-31T22:57:04;5.11;;4.88;;;;;;;
62702;SPS30;66022;50.448;18.122;2023-08-31T23:01:30;5.82;;5.66;;;;;;;
62702;SPS30;66022;50.448;18.122;2023-08-31T23:05:56;5.82;;5.66;;;;;;;
62702;SPS30;66022;50.448;18.122;2023-08-31T23:10:22;6.24;;6.08;;;;;;;
62702;SPS30;66022;50.448;18.122;2023-08-31T23:14:48;6.24;;6.08;;;;;;;
62702;SPS30;66022;50.448;18.122;2023-08-31T23:19:14;6.24;;6.08;;;;;;;
62702;SPS30;66022;50.448;18.122;2023-08-31T23:23:40;5.51;;5.50;;;;;;;
62702;SPS30;66022;50.448;18.122;2023-08-31T23:28:06;5.51;;5.50;;;;;;;
62702;SPS30;66022;50.448;18.122;2023-08-31T23:32:35;7.85;;7.20;;;;;;;
62702;SPS30;66022;50.448;18.122;2023-08-31T23:36:58;7.85;;7.20;;;;;;;
62702;SPS30;66022;50.448;18.122;2023-08-31T23:41:24;7.99;;7.99;;;;;;;
62702;SPS30;66022;50.448;18.122;2023-08-31T23:45:50;7.99;;7.99;;;;;;;
62702;SPS30;66022;50.448;18.122;2023-08-31T23:50:16;8.18;;8.18;;;;;;;
62702;SPS30;66022;50.448;18.122;2023-08-31T23:54:42;8.18;;8.18;;;;;;;
62702;SPS30;66022;50.448;18.122;2023-08-31T23:59:08;8.18;;8.18;;;;;;;
